createdAt,value
2018-05-29T00:00:57.376Z,14.70
2018-05-29T00:03:24.891Z,14.60
2018-05-29T00:05:52.397Z,14.50
2018-05-29T00:08:20.702Z,14.40
2018-05-29T00:10:48.205Z,14.30
2018-05-29T00:13:15.725Z,14.40
2018-05-29T00:15:43.249Z,14.40
2018-05-29T00:18:10.750Z,14.40
2018-05-29T00:20:38.265Z,14.40
2018-05-29T00:23:06.574Z,14.30
2018-05-29T00:25:34.085Z,14.30
2018-05-29T00:28:01.593Z,14.30
2018-05-29T00:30:29.125Z,14.30
2018-05-29T00:32:57.394Z,14.30
2018-05-29T00:35:25.675Z,14.30
2018-05-29T00:37:53.964Z,14.30
2018-05-29T00:40:21.473Z,14.30
2018-05-29T00:42:48.972Z,14.30
2018-05-29T00:45:17.268Z,14.10
2018-05-29T00:47:44.791Z,14.10
2018-05-29T00:50:12.310Z,14.10
2018-05-29T00:52:39.845Z,14.00
2018-05-29T00:55:19.133Z,13.90
2018-05-29T00:57:46.674Z,13.90
2018-05-29T01:00:14.186Z,14.00
2018-05-29T01:02:42.475Z,14.20
2018-05-29T01:05:10.005Z,14.20
2018-05-29T01:07:38.277Z,14.30
2018-05-29T01:10:06.544Z,14.30
2018-05-29T01:12:34.080Z,14.30
2018-05-29T01:15:01.597Z,14.20
2018-05-29T01:17:29.143Z,14.10
2018-05-29T01:19:57.446Z,13.90
2018-05-29T01:22:24.959Z,13.90
2018-05-29T01:24:52.471Z,13.80
2018-05-29T01:27:20.010Z,13.80
2018-05-29T01:29:47.509Z,13.70
2018-05-29T01:32:15.022Z,13.60
2018-05-29T01:34:43.329Z,13.40
2018-05-29T01:37:10.838Z,13.40
2018-05-29T01:39:39.122Z,13.60
2018-05-29T01:42:07.417Z,13.60
2018-05-29T01:44:34.926Z,13.60
2018-05-29T01:47:02.437Z,13.60
2018-05-29T01:49:29.977Z,13.60
2018-05-29T01:51:58.270Z,13.50
2018-05-29T01:54:25.779Z,13.50
2018-05-29T01:56:53.325Z,13.40
2018-05-29T01:59:20.841Z,13.40
2018-05-29T02:01:50.140Z,13.30
2018-05-29T02:04:17.709Z,13.30
2018-05-29T02:06:45.981Z,13.20
2018-05-29T02:09:13.494Z,13.10
2018-05-29T02:11:41.028Z,13.20
2018-05-29T02:14:08.533Z,13.20
2018-05-29T02:16:36.812Z,13.00
2018-05-29T02:19:05.127Z,12.90
2018-05-29T02:21:32.642Z,12.90
2018-05-29T02:24:00.925Z,13.00
2018-05-29T02:26:29.211Z,13.00
2018-05-29T02:28:57.487Z,12.90
2018-05-29T02:31:24.996Z,12.90
2018-05-29T02:33:52.538Z,12.90
2018-05-29T02:36:20.041Z,12.80
2018-05-29T02:38:47.551Z,12.70
2018-05-29T02:41:15.085Z,12.60
2018-05-29T02:43:42.594Z,12.60
2018-05-29T02:46:10.116Z,12.60
2018-05-29T02:48:37.666Z,12.60
2018-05-29T02:51:05.174Z,12.50
2018-05-29T02:53:32.691Z,12.50
2018-05-29T02:56:00.215Z,12.60
2018-05-29T02:58:28.500Z,12.80
2018-05-29T03:00:56.782Z,12.80
2018-05-29T03:03:25.090Z,12.80
2018-05-29T03:05:52.606Z,12.70
2018-05-29T03:08:20.880Z,12.60
2018-05-29T03:10:49.171Z,12.50
2018-05-29T03:13:17.457Z,12.50
2018-05-29T03:15:44.964Z,12.50
2018-05-29T03:18:12.510Z,12.40
2018-05-29T03:20:40.036Z,12.50
2018-05-29T03:23:07.558Z,12.50
2018-05-29T03:25:35.114Z,12.40
2018-05-29T03:28:02.620Z,12.40
2018-05-29T03:30:30.136Z,12.40
2018-05-29T03:32:57.659Z,12.50
2018-05-29T03:35:25.155Z,12.50
2018-05-29T03:37:52.654Z,12.50
2018-05-29T03:40:20.209Z,12.50
2018-05-29T03:42:47.716Z,12.40
2018-05-29T03:45:15.221Z,12.40
2018-05-29T03:47:42.747Z,12.40
2018-05-29T03:50:10.253Z,12.30
2018-05-29T03:52:37.775Z,12.30
2018-05-29T03:55:06.063Z,12.40
2018-05-29T03:57:34.327Z,12.50
2018-05-29T04:00:02.605Z,12.40
2018-05-29T04:02:30.913Z,12.40
2018-05-29T04:04:58.419Z,12.40
2018-05-29T04:07:27.435Z,12.40
2018-05-29T04:09:55.774Z,12.40
2018-05-29T04:12:23.260Z,12.40
2018-05-29T04:14:50.775Z,12.50
2018-05-29T04:17:18.318Z,12.50
2018-05-29T04:19:45.824Z,12.50
2018-05-29T04:22:13.328Z,12.60
2018-05-29T04:24:40.873Z,12.60
2018-05-29T04:27:09.162Z,12.60
2018-05-29T04:29:36.681Z,12.60
2018-05-29T04:32:04.210Z,12.60
2018-05-29T04:34:31.730Z,12.60
2018-05-29T04:36:59.250Z,12.70
2018-05-29T04:39:26.792Z,12.80
2018-05-29T04:41:54.304Z,12.80
2018-05-29T04:44:21.804Z,12.90
2018-05-29T04:46:49.328Z,12.90
2018-05-29T04:49:16.855Z,12.90
2018-05-29T04:51:44.382Z,13.00
2018-05-29T04:54:11.925Z,13.10
2018-05-29T04:56:39.461Z,13.10
2018-05-29T04:59:06.969Z,13.20
2018-05-29T05:01:34.509Z,13.20
2018-05-29T05:04:02.012Z,13.30
2018-05-29T05:06:29.525Z,13.40
2018-05-29T05:08:57.062Z,13.50
2018-05-29T05:11:24.581Z,13.60
2018-05-29T05:13:52.090Z,13.70
2018-05-29T05:16:19.630Z,13.90
2018-05-29T05:18:47.139Z,14.00
2018-05-29T05:21:14.649Z,14.10
2018-05-29T05:23:42.181Z,14.20
2018-05-29T05:26:10.444Z,14.50
2018-05-29T05:28:37.952Z,14.50
2018-05-29T05:31:05.485Z,14.70
2018-05-29T05:33:33.766Z,15.10
2018-05-29T05:36:02.045Z,15.30
2018-05-29T05:38:30.355Z,15.40
2018-05-29T05:40:57.866Z,15.40
2018-05-29T05:43:26.128Z,15.70
2018-05-29T05:45:53.658Z,15.60
2018-05-29T05:48:21.169Z,15.80
2018-05-29T05:50:49.450Z,16.00
2018-05-29T05:53:17.758Z,16.10
2018-05-29T05:55:45.265Z,16.10
2018-05-29T05:58:12.772Z,16.20
2018-05-29T06:00:40.310Z,16.30
2018-05-29T06:03:07.815Z,16.40
2018-05-29T06:05:35.327Z,16.50
2018-05-29T06:08:02.863Z,16.60
2018-05-29T06:10:31.129Z,16.80
2018-05-29T06:12:58.643Z,16.80
2018-05-29T06:15:26.164Z,16.90
2018-05-29T06:17:54.428Z,17.10
2018-05-29T06:20:21.930Z,17.10
2018-05-29T06:22:49.466Z,17.30
2018-05-29T06:25:17.742Z,17.50
2018-05-29T06:27:46.004Z,17.50
2018-05-29T06:30:14.305Z,17.60
2018-05-29T06:32:41.853Z,17.60
2018-05-29T06:35:10.123Z,17.80
2018-05-29T06:37:38.422Z,17.90
2018-05-29T06:40:05.945Z,17.90
2018-05-29T06:42:33.453Z,18.10
2018-05-29T06:45:01.052Z,18.30
2018-05-29T06:47:28.512Z,18.30
2018-05-29T06:49:56.022Z,18.40
2018-05-29T06:52:23.552Z,18.50
2018-05-29T06:54:51.822Z,18.60
2018-05-29T06:57:20.103Z,18.60
2018-05-29T06:59:48.392Z,18.70
2018-05-29T07:02:15.892Z,18.70
2018-05-29T07:04:43.405Z,18.80
2018-05-29T07:07:11.709Z,18.80
2018-05-29T07:09:39.226Z,18.80
2018-05-29T07:12:07.506Z,18.80
2018-05-29T07:14:35.846Z,18.90
2018-05-29T07:17:03.333Z,18.90
2018-05-29T07:19:31.604Z,19.00
2018-05-29T07:21:59.124Z,19.00
2018-05-29T07:24:26.623Z,19.10
2018-05-29T07:26:54.124Z,19.20
2018-05-29T07:29:21.652Z,19.20
2018-05-29T07:31:49.928Z,19.40
2018-05-29T07:34:18.192Z,19.50
2018-05-29T07:36:45.725Z,19.50
2018-05-29T07:39:13.224Z,19.50
2018-05-29T07:41:41.493Z,19.60
2018-05-29T07:44:09.784Z,19.60
2018-05-29T07:46:38.055Z,19.60
2018-05-29T07:49:06.328Z,19.60
2018-05-29T07:51:34.629Z,19.60
2018-05-29T07:54:02.141Z,19.60
2018-05-29T07:56:29.650Z,19.60
2018-05-29T07:58:57.275Z,19.70
2018-05-29T08:01:24.705Z,19.80
2018-05-29T08:03:52.991Z,19.90
2018-05-29T08:06:20.552Z,19.90
2018-05-29T08:08:48.043Z,19.90
2018-05-29T08:11:15.557Z,20.00
2018-05-29T08:13:43.085Z,20.00
2018-05-29T08:16:10.594Z,20.10
2018-05-29T08:18:38.904Z,20.30
2018-05-29T08:21:07.283Z,20.20
2018-05-29T08:23:34.788Z,20.40
2018-05-29T08:26:02.301Z,20.50
2018-05-29T08:28:29.823Z,20.70
2018-05-29T08:30:57.336Z,20.80
2018-05-29T08:33:24.856Z,21.00
2018-05-29T08:35:53.162Z,21.40
2018-05-29T08:38:20.674Z,21.40
2018-05-29T08:40:48.172Z,21.70
2018-05-29T08:43:15.734Z,22.00
2018-05-29T08:45:43.249Z,22.20
2018-05-29T08:48:10.756Z,22.40
2018-05-29T08:50:38.284Z,22.50
2018-05-29T08:53:06.560Z,22.60
2018-05-29T08:55:34.836Z,22.60
2018-05-29T08:58:03.137Z,22.70
2018-05-29T09:00:30.654Z,22.70
2018-05-29T09:02:58.152Z,22.80
2018-05-29T09:05:25.708Z,22.70
2018-05-29T09:07:53.225Z,22.70
2018-05-29T09:10:20.736Z,22.70
2018-05-29T09:12:48.267Z,22.80
2018-05-29T09:15:17.262Z,22.90
2018-05-29T09:17:45.547Z,23.00
2018-05-29T09:20:13.073Z,22.90
2018-05-29T09:22:40.713Z,23.00
2018-05-29T09:25:08.225Z,23.00
2018-05-29T09:27:35.752Z,23.00
2018-05-29T09:30:03.259Z,23.00
2018-05-29T09:32:30.770Z,23.00
2018-05-29T09:34:58.307Z,23.10
2018-05-29T09:37:25.883Z,23.10
2018-05-29T09:39:53.350Z,23.20
2018-05-29T09:42:20.886Z,23.40
2018-05-29T09:44:48.445Z,23.40
2018-05-29T09:47:15.915Z,23.50
2018-05-29T09:49:43.443Z,23.60
2018-05-29T09:52:10.946Z,23.60
2018-05-29T09:54:38.454Z,23.80
2018-05-29T09:57:05.991Z,23.90
2018-05-29T10:02:07.466Z,24.10
2018-05-29T10:04:34.981Z,24.30
2018-05-29T10:07:02.526Z,24.70
2018-05-29T10:09:30.026Z,24.80
2018-05-29T10:11:57.549Z,25.00
2018-05-29T10:14:25.076Z,25.10
2018-05-29T10:16:52.604Z,25.20
2018-05-29T10:19:20.895Z,25.00
2018-05-29T10:21:48.406Z,25.00
2018-05-29T10:24:15.939Z,24.90
2018-05-29T10:26:43.444Z,24.80
2018-05-29T10:29:11.711Z,24.80
2018-05-29T10:31:40.008Z,24.70
2018-05-29T10:34:07.514Z,24.70
2018-05-29T10:36:35.012Z,24.70
2018-05-29T10:39:03.307Z,24.60
2018-05-29T10:41:30.811Z,24.60
2018-05-29T10:43:58.329Z,24.60
2018-05-29T10:46:25.856Z,24.60
2018-05-29T10:48:53.374Z,24.70
2018-05-29T10:51:20.878Z,24.70
2018-05-29T10:53:49.196Z,24.70
2018-05-29T10:56:16.719Z,24.60
2018-05-29T10:58:44.984Z,24.60
2018-05-29T11:01:12.522Z,24.60
2018-05-29T11:03:40.023Z,24.70
2018-05-29T11:06:08.284Z,24.70
2018-05-29T11:08:36.569Z,24.80
2018-05-29T11:11:04.842Z,24.80
2018-05-29T11:13:33.117Z,24.90
2018-05-29T11:16:01.458Z,24.80
2018-05-29T11:18:28.964Z,24.80
2018-05-29T11:20:57.242Z,24.90
2018-05-29T11:23:24.773Z,24.80
2018-05-29T11:25:52.287Z,24.90
2018-05-29T11:28:19.788Z,25.00
2018-05-29T11:30:47.327Z,25.00
2018-05-29T11:33:14.842Z,25.00
2018-05-29T11:35:42.358Z,25.00
2018-05-29T11:38:09.879Z,25.00
2018-05-29T11:40:37.389Z,24.90
2018-05-29T11:43:05.674Z,24.80
2018-05-29T11:45:33.978Z,24.70
2018-05-29T11:48:02.070Z,24.70
2018-05-29T11:50:29.569Z,24.70
2018-05-29T11:52:57.099Z,24.70
2018-05-29T11:55:24.616Z,24.70
2018-05-29T11:57:52.133Z,24.80
2018-05-29T12:00:19.659Z,24.90
2018-05-29T12:02:47.164Z,25.10
2018-05-29T12:05:15.436Z,25.30
2018-05-29T12:07:43.034Z,25.30
2018-05-29T12:10:10.492Z,25.50
2018-05-29T12:12:38.011Z,25.60
2018-05-29T12:15:05.551Z,25.90
2018-05-29T12:17:33.527Z,26.10
2018-05-29T12:20:01.047Z,26.30
2018-05-29T12:22:28.583Z,26.30
2018-05-29T12:24:56.852Z,26.70
2018-05-29T12:27:25.139Z,26.70
2018-05-29T12:29:52.675Z,26.70
2018-05-29T12:32:20.949Z,26.80
2018-05-29T12:34:49.221Z,26.90
2018-05-29T12:37:16.748Z,26.90
2018-05-29T12:39:44.253Z,27.00
2018-05-29T12:42:12.521Z,27.20
2018-05-29T12:44:40.816Z,27.20
2018-05-29T12:47:09.089Z,27.30
2018-05-29T12:49:37.360Z,27.40
2018-05-29T12:52:05.662Z,27.50
2018-05-29T12:54:33.160Z,27.40
2018-05-29T12:57:00.660Z,27.60
2018-05-29T12:59:28.956Z,27.70
2018-05-29T13:01:56.466Z,27.70
2018-05-29T13:04:23.982Z,27.80
2018-05-29T13:06:51.518Z,27.60
2018-05-29T13:09:19.035Z,27.60
2018-05-29T13:11:46.550Z,27.60
2018-05-29T13:14:14.079Z,27.60
2018-05-29T13:16:42.383Z,27.50
2018-05-29T13:19:09.889Z,27.50
2018-05-29T13:21:37.421Z,27.50
2018-05-29T13:24:04.922Z,27.50
2018-05-29T13:26:33.200Z,27.70
2018-05-29T13:29:01.497Z,27.80
2018-05-29T13:31:29.003Z,27.80
2018-05-29T13:33:56.512Z,27.80
2018-05-29T13:36:24.062Z,27.90
2018-05-29T13:38:52.349Z,28.00
2018-05-29T13:41:19.861Z,27.90
2018-05-29T13:43:47.401Z,28.00
2018-05-29T13:46:14.918Z,28.10
2018-05-29T13:48:43.187Z,28.30
2018-05-29T13:51:11.503Z,28.40
2018-05-29T13:53:39.014Z,28.40
2018-05-29T13:56:06.517Z,28.40
2018-05-29T13:58:34.055Z,28.40
2018-05-29T14:01:01.573Z,28.40
2018-05-29T14:03:29.077Z,28.50
2018-05-29T14:05:56.613Z,28.50
2018-05-29T14:08:24.896Z,28.60
2018-05-29T14:10:53.172Z,28.50
2018-05-29T14:13:21.480Z,28.30
2018-05-29T14:15:49.087Z,28.30
2018-05-29T14:18:16.588Z,28.10
2018-05-29T14:20:44.126Z,28.30
2018-05-29T14:23:12.400Z,28.50
2018-05-29T14:25:40.666Z,28.60
2018-05-29T14:28:08.192Z,28.50
2018-05-29T14:30:35.710Z,28.50
2018-05-29T14:33:03.231Z,28.50
2018-05-29T14:35:30.755Z,28.40
2018-05-29T14:37:58.262Z,28.40
2018-05-29T14:40:26.529Z,28.30
2018-05-29T14:42:54.117Z,28.30
2018-05-29T14:45:21.642Z,28.20
2018-05-29T14:47:49.139Z,28.20
2018-05-29T14:50:16.669Z,28.10
2018-05-29T14:52:44.172Z,27.90
2018-05-29T14:55:11.678Z,28.00
2018-05-29T14:57:39.204Z,28.00
2018-05-29T15:00:06.704Z,27.80
2018-05-29T15:02:34.985Z,27.80
2018-05-29T15:05:03.279Z,27.80
2018-05-29T15:07:30.784Z,27.70
2018-05-29T15:09:59.048Z,27.70
2018-05-29T15:12:26.590Z,27.70
2018-05-29T15:14:54.091Z,27.60
2018-05-29T15:17:21.611Z,27.50
2018-05-29T15:19:49.146Z,27.40
2018-05-29T15:22:17.416Z,27.40
2018-05-29T15:24:45.694Z,27.40
2018-05-29T15:27:14.004Z,27.40
2018-05-29T15:29:41.518Z,27.40
2018-05-29T15:32:09.797Z,27.30
2018-05-29T15:34:38.091Z,27.30
2018-05-29T15:37:05.607Z,27.30
2018-05-29T15:39:33.107Z,27.20
2018-05-29T15:42:00.645Z,27.20
2018-05-29T15:44:28.928Z,27.10
2018-05-29T15:46:57.205Z,27.10
2018-05-29T15:49:25.487Z,27.10
2018-05-29T15:51:53.759Z,27.10
2018-05-29T15:54:22.052Z,27.10
2018-05-29T15:56:49.591Z,27.10
2018-05-29T15:59:17.864Z,27.20
2018-05-29T16:01:46.132Z,27.30
2018-05-29T16:04:13.663Z,27.30
2018-05-29T16:06:41.159Z,27.30
2018-05-29T16:09:09.433Z,27.40
2018-05-29T16:11:37.729Z,27.30
2018-05-29T16:14:05.272Z,27.30
2018-05-29T16:16:32.748Z,27.30
2018-05-29T16:19:00.266Z,27.40
2018-05-29T16:21:27.776Z,27.40
2018-05-29T16:23:55.293Z,27.40
2018-05-29T16:26:22.815Z,27.40
2018-05-29T16:28:50.330Z,27.20
2018-05-29T16:31:18.609Z,27.10
2018-05-29T16:33:46.937Z,27.10
2018-05-29T16:36:14.447Z,27.10
2018-05-29T16:38:42.718Z,27.10
2018-05-29T16:41:11.034Z,27.10
2018-05-29T16:43:38.553Z,27.10
2018-05-29T16:46:06.824Z,27.00
2018-05-29T16:48:35.130Z,27.00
2018-05-29T16:51:02.643Z,27.00
2018-05-29T16:53:30.151Z,26.80
2018-05-29T16:55:57.693Z,26.80
2018-05-29T16:58:25.203Z,26.80
2018-05-29T17:00:53.489Z,26.80
2018-05-29T17:03:21.016Z,26.80
2018-05-29T17:05:48.516Z,26.80
2018-05-29T17:08:16.030Z,26.80
2018-05-29T17:10:43.562Z,26.80
2018-05-29T17:13:11.088Z,26.80
2018-05-29T17:15:38.605Z,26.70
2018-05-29T17:18:06.133Z,26.70
2018-05-29T17:20:34.413Z,26.60
2018-05-29T17:23:01.929Z,26.60
2018-05-29T17:25:29.471Z,26.50
2018-05-29T17:27:56.977Z,26.40
2018-05-29T17:30:25.262Z,26.30
2018-05-29T17:32:52.793Z,26.30
2018-05-29T17:35:20.312Z,26.30
2018-05-29T17:37:47.828Z,26.20
2018-05-29T17:40:16.123Z,26.00
2018-05-29T17:42:43.624Z,26.00
2018-05-29T17:45:11.127Z,25.90
2018-05-29T17:47:39.437Z,25.70
2018-05-29T17:50:06.953Z,25.70
2018-05-29T17:52:35.224Z,25.50
2018-05-29T17:55:03.535Z,25.50
2018-05-29T17:57:31.036Z,25.40
2018-05-29T17:59:58.550Z,25.40
2018-05-29T18:02:26.100Z,25.40
2018-05-29T18:04:53.616Z,25.40
2018-05-29T18:07:21.126Z,25.30
2018-05-29T18:09:48.648Z,25.30
2018-05-29T18:12:16.143Z,25.20
2018-05-29T18:14:43.660Z,25.20
2018-05-29T18:17:11.201Z,25.10
2018-05-29T18:19:38.704Z,25.00
2018-05-29T18:22:06.997Z,24.80
2018-05-29T18:24:34.537Z,24.80
2018-05-29T18:27:02.806Z,24.80
2018-05-29T18:29:31.083Z,24.80
2018-05-29T18:31:59.390Z,24.70
2018-05-29T18:34:26.891Z,24.70
2018-05-29T18:36:56.025Z,24.80
2018-05-29T18:39:24.330Z,24.80
2018-05-29T18:41:51.836Z,24.80
2018-05-29T18:44:20.452Z,24.80
2018-05-29T18:46:48.011Z,24.70
2018-05-29T18:49:15.519Z,24.70
2018-05-29T18:51:43.029Z,24.70
2018-05-29T18:54:10.560Z,24.70
2018-05-29T18:56:39.789Z,24.30
2018-05-29T18:59:07.303Z,24.30
2018-05-29T19:01:34.828Z,24.10
2018-05-29T19:04:02.329Z,24.00
2018-05-29T19:06:30.618Z,23.60
2018-05-29T19:08:58.176Z,23.60
2018-05-29T19:11:26.440Z,23.30
2018-05-29T19:13:53.953Z,23.20
2018-05-29T19:16:21.490Z,23.10
2018-05-29T19:18:48.991Z,22.90
2018-05-29T19:21:19.430Z,22.50
2018-05-29T19:23:46.964Z,22.50
2018-05-29T19:26:15.382Z,22.30
2018-05-29T19:28:42.896Z,22.20
2018-05-29T19:31:12.405Z,22.20
2018-05-29T19:33:41.268Z,22.40
2018-05-29T19:36:09.013Z,22.60
2018-05-29T19:38:39.777Z,22.00
2018-05-29T19:41:08.463Z,21.50
2018-05-29T19:43:36.773Z,20.80
2018-05-29T19:46:04.311Z,20.10
2018-05-29T19:48:31.831Z,19.30
2018-05-29T19:51:00.137Z,17.90
2018-05-29T19:53:27.645Z,17.80
2018-05-29T19:55:55.964Z,17.50
2018-05-29T19:58:23.523Z,17.40
2018-05-29T20:00:51.041Z,17.50
2018-05-29T20:03:18.575Z,17.50
2018-05-29T20:05:46.078Z,17.70
2018-05-29T20:08:14.364Z,17.80
2018-05-29T20:10:41.869Z,17.80
2018-05-29T20:13:09.389Z,17.70
2018-05-29T20:15:36.902Z,17.70
2018-05-29T20:18:04.432Z,17.60
2018-05-29T20:20:31.932Z,17.30
2018-05-29T20:22:59.448Z,16.90
2018-05-29T20:25:27.000Z,16.70
2018-05-29T20:27:54.508Z,16.70
2018-05-29T20:30:22.799Z,17.10
2018-05-29T20:32:51.083Z,17.40
2018-05-29T20:35:18.608Z,17.40
2018-05-29T20:37:46.120Z,17.70
2018-05-29T20:40:13.661Z,17.90
2018-05-29T20:42:41.171Z,17.90
2018-05-29T20:45:08.703Z,17.90
2018-05-29T20:47:36.225Z,17.80
2018-05-29T20:50:04.520Z,17.90
2018-05-29T20:52:32.064Z,17.90
2018-05-29T20:55:00.355Z,18.40
2018-05-29T20:57:27.884Z,18.40
2018-05-29T20:59:56.173Z,18.00
2018-05-29T21:02:24.469Z,17.90
2018-05-29T21:04:51.986Z,17.90
2018-05-29T21:07:19.518Z,17.90
2018-05-29T21:09:47.034Z,17.80
2018-05-29T21:12:14.556Z,17.80
2018-05-29T21:14:42.097Z,17.80
2018-05-29T21:17:09.610Z,17.90
2018-05-29T21:19:37.896Z,18.20
2018-05-29T21:22:05.415Z,18.20
2018-05-29T21:24:32.949Z,18.30
2018-05-29T21:27:00.452Z,18.30
2018-05-29T21:29:28.736Z,18.20
2018-05-29T21:31:57.017Z,17.80
2018-05-29T21:34:24.545Z,17.80
2018-05-29T21:36:52.073Z,17.60
2018-05-29T21:39:19.585Z,17.50
2018-05-29T21:41:47.886Z,17.50
2018-05-29T21:44:15.389Z,17.50
2018-05-29T21:46:42.910Z,17.60
2018-05-29T21:49:10.424Z,17.60
2018-05-29T21:51:38.716Z,17.80
2018-05-29T21:54:06.984Z,17.90
2018-05-29T21:56:35.298Z,18.00
2018-05-29T21:59:02.823Z,18.00
2018-05-29T22:01:31.090Z,18.10
2018-05-29T22:04:03.194Z,18.10
2018-05-29T22:06:30.702Z,18.10
2018-05-29T22:08:58.223Z,18.00
2018-05-29T22:11:25.715Z,18.00
2018-05-29T22:13:53.237Z,18.00
2018-05-29T22:16:20.735Z,17.90
2018-05-29T22:18:48.253Z,17.90
2018-05-29T22:21:15.769Z,17.90
2018-05-29T22:23:44.071Z,17.90
2018-05-29T22:26:11.579Z,17.90
2018-05-29T22:28:39.104Z,17.90
2018-05-29T22:31:06.625Z,17.80
2018-05-29T22:33:34.906Z,17.80
2018-05-29T22:36:03.209Z,17.90
2018-05-29T22:38:30.728Z,17.90
2018-05-29T22:40:59.031Z,17.90
2018-05-29T22:43:26.535Z,17.90
2018-05-29T22:45:54.047Z,17.90
2018-05-29T22:48:21.573Z,17.90
2018-05-29T22:50:49.086Z,18.00
2018-05-29T22:53:16.621Z,18.00
2018-05-29T22:55:44.120Z,18.00
2018-05-29T22:58:11.648Z,18.00
2018-05-29T23:00:39.152Z,17.90
2018-05-29T23:03:06.689Z,17.80
2018-05-29T23:05:34.235Z,18.00
2018-05-29T23:08:01.783Z,17.90
2018-05-29T23:10:29.298Z,17.90
2018-05-29T23:12:56.816Z,18.00
2018-05-29T23:15:24.345Z,18.10
2018-05-29T23:17:52.624Z,18.10
2018-05-29T23:20:20.149Z,18.10
2018-05-29T23:22:47.652Z,18.10
2018-05-29T23:25:15.181Z,18.20
2018-05-29T23:27:43.463Z,17.90
2018-05-29T23:30:11.769Z,17.90
2018-05-29T23:32:39.296Z,17.90
2018-05-29T23:35:07.569Z,17.80
2018-05-29T23:37:35.864Z,17.60
2018-05-29T23:40:03.381Z,17.60
2018-05-29T23:42:30.917Z,17.60
2018-05-29T23:44:58.438Z,17.50
2018-05-29T23:47:26.733Z,17.20
2018-05-29T23:49:54.246Z,17.20
2018-05-29T23:52:22.536Z,17.00
2018-05-29T23:54:50.804Z,16.90
2018-05-29T23:57:19.115Z,16.80
2018-05-29T23:59:46.619Z,16.90
